Time;durP1;ratioP1;P1;durP2;ratioP2;P2;SDS_P1;SDS_P2;PMS_P1;PMS_P2;Temp;Humidity;BMP_temperature;BMP_pressure;BME280_temperature;BME280_humidity;BME280_pressure;Samples;Min_cycle;Max_cycle;Signal;HPM_P1;HPM_P2
2022/03/25 00:00:05;;;;;;;101.47;62.50;;;5.70;95.00;;;;;;5011491;28;20151;-41
2022/03/25 00:02:32;;;;;;;102.70;62.97;;;5.60;94.90;;;;;;5011060;28;20117;-40
2022/03/25 00:04:59;;;;;;;101.82;62.20;;;5.60;94.80;;;;;;5011976;28;20046;-41
2022/03/25 00:07:27;;;;;;;104.63;62.92;;;5.60;94.90;;;;;;5011907;28;20085;-41
2022/03/25 00:09:55;;;;;;;109.75;66.82;;;5.50;95.20;;;;;;5009022;28;20366;-40
2022/03/25 00:12:22;;;;;;;113.38;68.97;;;5.50;95.60;;;;;;5011803;28;20076;-41
2022/03/25 00:14:49;;;;;;;100.32;61.97;;;5.40;95.70;;;;;;5011349;28;20046;-40
2022/03/25 00:17:16;;;;;;;100.07;61.55;;;5.40;95.60;;;;;;5011634;28;20042;-41
2022/03/25 00:19:43;;;;;;;97.57;59.38;;;5.40;95.40;;;;;;5011925;28;20042;-41
2022/03/25 00:22:09;;;;;;;97.82;60.13;;;5.40;95.30;;;;;;5011373;28;20053;-41
2022/03/25 00:24:36;;;;;;;101.68;61.72;;;5.30;95.20;;;;;;5010929;28;20050;-41
2022/03/25 00:27:05;;;;;;;97.55;60.63;;;5.30;95.20;;;;;;5026600;28;20057;-41
2022/03/25 00:29:32;;;;;;;96.40;59.40;;;5.30;95.30;;;;;;5012060;28;20077;-41
2022/03/25 00:31:58;;;;;;;108.40;67.40;;;5.30;95.10;;;;;;5004668;28;20046;-41
2022/03/25 00:34:25;;;;;;;108.28;63.88;;;5.20;95.00;;;;;;5004951;28;20378;-41
2022/03/25 00:36:52;;;;;;;92.90;55.97;;;5.20;95.60;;;;;;5009028;28;20121;-41
2022/03/25 00:39:18;;;;;;;108.90;64.60;;;5.20;95.80;;;;;;5008603;28;20054;-41
2022/03/25 00:41:45;;;;;;;122.00;72.40;;;5.10;96.30;;;;;;5010863;28;20042;-40
2022/03/25 00:44:13;;;;;;;114.28;66.47;;;5.00;96.70;;;;;;5010157;28;20041;-40
2022/03/25 00:46:40;;;;;;;93.15;58.30;;;5.00;97.10;;;;;;5014255;28;20476;-41
2022/03/25 00:49:07;;;;;;;100.72;61.50;;;4.90;96.80;;;;;;5014836;28;20054;-40
2022/03/25 00:51:34;;;;;;;89.65;55.38;;;4.90;97.00;;;;;;5010860;28;20060;-41
2022/03/25 00:54:02;;;;;;;96.25;58.88;;;4.90;97.00;;;;;;5015828;28;20050;-42
2022/03/25 00:56:29;;;;;;;96.88;60.58;;;4.90;97.00;;;;;;5015043;28;20050;-41
2022/03/25 00:58:55;;;;;;;101.35;60.70;;;4.80;96.90;;;;;;5015297;28;20054;-41
2022/03/25 01:01:25;;;;;;;98.95;62.13;;;4.80;96.70;;;;;;5013831;28;20042;-41
2022/03/25 01:03:52;;;;;;;99.70;61.38;;;4.80;96.80;;;;;;5015421;28;20432;-40
2022/03/25 01:06:18;;;;;;;83.20;52.38;;;4.80;97.20;;;;;;5015106;28;20064;-41
2022/03/25 01:08:45;;;;;;;90.10;57.47;;;4.70;97.30;;;;;;5013899;28;20512;-42
2022/03/25 01:11:13;;;;;;;85.45;53.83;;;4.70;97.40;;;;;;5014581;28;20254;-41
2022/03/25 01:13:39;;;;;;;83.43;53.70;;;4.60;97.40;;;;;;5015600;28;20037;-42
2022/03/25 01:16:07;;;;;;;79.20;50.85;;;4.60;97.40;;;;;;5014237;28;20064;-40
2022/03/25 01:18:35;;;;;;;83.85;52.42;;;4.60;97.30;;;;;;5014799;28;20473;-41
2022/03/25 01:21:01;;;;;;;79.90;50.90;;;4.60;97.10;;;;;;5014448;28;20046;-40
2022/03/25 01:23:28;;;;;;;92.80;56.53;;;4.60;97.00;;;;;;5014808;28;20037;-41
2022/03/25 01:25:55;;;;;;;86.75;54.40;;;4.50;97.20;;;;;;5015178;28;20050;-40
2022/03/25 01:28:21;;;;;;;108.35;63.65;;;4.50;97.20;;;;;;5013727;28;20478;-40
2022/03/25 01:30:48;;;;;;;95.47;57.90;;;4.60;97.70;;;;;;5014372;28;20124;-40
2022/03/25 01:33:15;;;;;;;93.68;56.58;;;4.50;98.10;;;;;;5014667;28;20053;-40
2022/03/25 01:35:43;;;;;;;117.22;67.82;;;4.50;98.10;;;;;;5014413;28;20060;-40
2022/03/25 01:38:09;;;;;;;93.72;57.15;;;4.40;98.60;;;;;;5014218;28;20064;-41
2022/03/25 01:40:36;;;;;;;105.63;62.20;;;4.40;98.70;;;;;;5013276;28;20041;-43
2022/03/25 01:43:03;;;;;;;109.13;62.90;;;4.40;98.80;;;;;;5014659;28;20048;-41
2022/03/25 01:45:32;;;;;;;95.78;59.20;;;4.40;98.70;;;;;;5029375;28;20042;-40
2022/03/25 01:47:59;;;;;;;96.03;56.85;;;4.40;98.70;;;;;;5013753;28;20077;-39
2022/03/25 01:50:25;;;;;;;102.32;63.33;;;4.30;98.70;;;;;;5013622;28;20045;-41
2022/03/25 01:52:54;;;;;;;88.85;55.80;;;4.30;99.10;;;;;;5014885;28;20474;-41
2022/03/25 01:55:24;;;;;;;108.13;66.13;;;4.30;99.30;;;;;;5012840;28;20049;-42
2022/03/25 01:57:51;;;;;;;100.13;61.17;;;4.20;99.50;;;;;;5014020;28;20054;-41
2022/03/25 02:00:18;;;;;;;102.30;61.95;;;4.20;99.80;;;;;;5014210;28;20060;-41
2022/03/25 02:02:45;;;;;;;103.38;62.70;;;4.10;99.70;;;;;;5014684;28;20421;-42
2022/03/25 02:05:12;;;;;;;106.68;64.00;;;4.10;99.90;;;;;;5012632;28;20042;-41
2022/03/25 02:07:39;;;;;;;107.18;63.95;;;4.10;99.90;;;;;;5014125;28;20412;-40
2022/03/25 02:10:08;;;;;;;103.45;62.08;;;4.10;99.90;;;;;;5013681;28;20691;-40
2022/03/25 02:12:35;;;;;;;90.43;52.58;;;4.10;99.90;;;;;;5013230;28;20064;-41
2022/03/25 02:15:02;;;;;;;103.22;60.80;;;4.10;99.80;;;;;;5010587;28;20549;-41
2022/03/25 02:17:29;;;;;;;107.85;65.53;;;4.00;99.80;;;;;;5013096;28;20050;-41
2022/03/25 02:19:56;;;;;;;94.85;58.33;;;4.00;99.90;;;;;;5012323;28;20493;-40
2022/03/25 02:22:24;;;;;;;100.53;60.78;;;4.00;99.90;;;;;;5013428;28;20512;-41
2022/03/25 02:24:51;;;;;;;100.40;57.15;;;4.00;99.80;;;;;;5012253;28;20045;-40
2022/03/25 02:27:18;;;;;;;93.05;56.92;;;4.00;99.70;;;;;;4999684;28;20054;-41
2022/03/25 02:29:44;;;;;;;98.65;59.75;;;4.00;99.80;;;;;;5012758;28;20049;-40
2022/03/25 02:32:11;;;;;;;93.63;58.05;;;4.00;99.40;;;;;;5004089;28;20046;-40
2022/03/25 02:34:38;;;;;;;98.10;60.60;;;3.90;99.60;;;;;;5012424;28;20088;-39
2022/03/25 02:37:05;;;;;;;94.15;57.38;;;3.90;99.70;;;;;;5013413;28;20390;-40
2022/03/25 02:39:33;;;;;;;100.10;58.72;;;3.90;99.60;;;;;;5013672;28;20050;-41
2022/03/25 02:42:00;;;;;;;97.25;57.67;;;3.90;99.70;;;;;;5013836;28;20050;-41
2022/03/25 02:44:27;;;;;;;92.13;56.42;;;3.80;99.50;;;;;;5027746;28;20105;-41
2022/03/25 02:46:54;;;;;;;87.00;55.33;;;3.80;99.30;;;;;;5013186;28;20422;-40
2022/03/25 02:49:21;;;;;;;82.22;49.90;;;3.80;99.10;;;;;;5011961;28;20056;-39
2022/03/25 02:51:48;;;;;;;94.47;57.42;;;3.80;99.00;;;;;;5012477;28;20049;-40
2022/03/25 02:54:15;;;;;;;91.38;56.35;;;3.80;98.80;;;;;;5013460;28;20052;-40
2022/03/25 02:56:43;;;;;;;85.32;54.35;;;3.80;98.90;;;;;;5012595;28;20070;-41
2022/03/25 02:59:09;;;;;;;85.20;54.92;;;3.80;98.90;;;;;;5012695;28;20041;-41
2022/03/25 03:01:39;;;;;;;86.30;53.50;;;3.70;99.30;;;;;;5012052;28;20078;-41
2022/03/25 03:04:06;;;;;;;68.57;44.58;;;3.60;99.60;;;;;;5009430;28;20358;-41
2022/03/25 03:06:33;;;;;;;70.72;46.33;;;3.60;99.90;;;;;;5012237;28;20050;-40
2022/03/25 03:08:59;;;;;;;84.97;49.60;;;3.50;99.90;;;;;;5011223;28;20052;-40
2022/03/25 03:11:27;;;;;;;215.15;50.20;;;3.50;99.90;;;;;;5012279;28;20371;-40
2022/03/25 03:13:55;;;;;;;410.90;52.60;;;3.40;99.90;;;;;;5011562;28;20096;-42
2022/03/25 03:16:22;;;;;;;587.08;55.50;;;3.20;99.90;;;;;;5013704;28;20389;-40
2022/03/25 03:18:48;;;;;;;336.92;48.85;;;3.10;99.90;;;;;;5011394;28;20050;-41
2022/03/25 03:21:15;;;;;;;403.63;52.80;;;3.00;99.90;;;;;;5012631;28;20120;-41
2022/03/25 03:23:42;;;;;;;448.90;50.33;;;2.90;99.90;;;;;;5011310;28;20486;-41
2022/03/25 03:26:09;;;;;;;439.38;44.80;;;2.80;99.90;;;;;;5012652;28;20050;-41
2022/03/25 03:28:35;;;;;;;368.95;40.08;;;2.60;99.90;;;;;;5012753;28;20050;-41
2022/03/25 03:31:03;;;;;;;326.65;38.63;;;2.50;99.90;;;;;;5012029;28;20053;-40
2022/03/25 03:33:30;;;;;;;364.05;39.58;;;2.40;99.90;;;;;;4999794;28;20706;-40
2022/03/25 03:35:57;;;;;;;104.65;42.33;;;2.30;99.90;;;;;;5012785;28;20064;-40
2022/03/25 03:38:24;;;;;;;71.65;35.83;;;2.30;99.90;;;;;;5013232;28;20049;-41
2022/03/25 03:40:51;;;;;;;92.95;42.20;;;2.30;99.90;;;;;;5012684;28;20144;-41
2022/03/25 03:43:17;;;;;;;49.53;34.67;;;2.40;99.90;;;;;;5012512;28;20065;-40
2022/03/25 03:45:44;;;;;;;74.78;35.83;;;2.40;99.90;;;;;;5011885;28;20492;-40
2022/03/25 03:48:12;;;;;;;61.03;34.83;;;2.40;99.90;;;;;;5012774;28;20100;-40
2022/03/25 03:50:39;;;;;;;109.18;35.92;;;2.50;99.90;;;;;;5012268;28;20046;-40
2022/03/25 03:53:06;;;;;;;79.10;35.88;;;2.50;99.90;;;;;;5010853;28;20458;-40
2022/03/25 03:55:33;;;;;;;215.88;38.92;;;2.50;99.90;;;;;;5011402;28;20467;-40
2022/03/25 03:57:59;;;;;;;162.25;37.35;;;2.50;99.90;;;;;;5012666;28;20038;-40
2022/03/25 04:00:26;;;;;;;132.18;37.75;;;2.40;99.90;;;;;;5011460;28;20132;-39
2022/03/25 04:02:54;;;;;;;282.88;37.80;;;2.40;99.90;;;;;;5011653;28;20393;-40
2022/03/25 04:05:22;;;;;;;331.02;39.80;;;2.30;99.90;;;;;;5026438;28;20041;-41
2022/03/25 04:07:49;;;;;;;382.05;40.65;;;2.30;99.90;;;;;;5012619;28;20042;-40
2022/03/25 04:10:16;;;;;;;326.27;39.03;;;2.20;99.90;;;;;;5011691;28;20046;-40
2022/03/25 04:12:43;;;;;;;93.32;33.63;;;2.10;99.90;;;;;;5010437;28;20045;-41
2022/03/25 04:15:10;;;;;;;217.38;35.20;;;1.90;99.90;;;;;;5011830;28;20132;-41
2022/03/25 04:17:37;;;;;;;374.60;39.97;;;1.90;99.90;;;;;;5012455;28;20125;-40
2022/03/25 04:20:04;;;;;;;211.70;34.85;;;1.90;99.90;;;;;;5012303;28;20053;-41
2022/03/25 04:22:32;;;;;;;437.23;40.03;;;1.90;99.90;;;;;;5014377;28;20045;-41
2022/03/25 04:24:59;;;;;;;650.58;51.60;;;1.90;99.90;;;;;;5004770;28;20052;-40
2022/03/25 04:27:26;;;;;;;481.60;44.80;;;1.90;99.90;;;;;;5011620;28;20462;-42
2022/03/25 04:29:52;;;;;;;312.63;37.42;;;1.80;99.90;;;;;;5015060;28;20389;-41
2022/03/25 04:32:19;;;;;;;203.52;36.15;;;1.70;99.90;;;;;;5003561;28;20230;-40
2022/03/25 04:34:46;;;;;;;308.42;39.83;;;1.80;99.90;;;;;;5012899;28;20045;-41
2022/03/25 04:37:12;;;;;;;368.15;39.45;;;1.70;99.90;;;;;;5008260;28;20052;-40
2022/03/25 04:39:40;;;;;;;147.35;35.90;;;1.70;99.90;;;;;;5005992;28;20053;-40
2022/03/25 04:42:08;;;;;;;347.85;38.92;;;1.80;99.90;;;;;;5014631;28;20047;-42
2022/03/25 04:44:35;;;;;;;216.02;35.42;;;1.70;99.90;;;;;;5014559;28;20057;-40
2022/03/25 04:47:03;;;;;;;337.05;38.28;;;1.70;99.90;;;;;;5015230;28;20057;-40
2022/03/25 04:49:30;;;;;;;273.65;38.28;;;1.70;99.90;;;;;;5015114;28;20184;-40
2022/03/25 04:51:57;;;;;;;93.05;37.72;;;1.70;99.90;;;;;;5015585;28;20074;-40
2022/03/25 04:54:23;;;;;;;260.33;34.60;;;1.70;99.90;;;;;;5015241;28;20042;-40
2022/03/25 04:56:51;;;;;;;71.60;37.95;;;1.70;99.90;;;;;;5014381;28;20085;-40
2022/03/25 04:59:18;;;;;;;94.35;37.65;;;1.70;99.90;;;;;;5010663;28;20049;-40
2022/03/25 05:01:45;;;;;;;52.25;31.65;;;1.80;99.90;;;;;;5014267;28;20042;-40
2022/03/25 05:04:12;;;;;;;99.90;35.03;;;1.80;99.90;;;;;;5014659;28;20088;-40
2022/03/25 05:06:38;;;;;;;142.00;37.88;;;1.90;99.90;;;;;;5013385;28;20046;-40
2022/03/25 05:09:06;;;;;;;258.58;38.00;;;1.90;99.90;;;;;;5015133;28;20481;-40
2022/03/25 05:11:33;;;;;;;208.88;34.38;;;1.90;99.90;;;;;;5014996;28;20397;-41
2022/03/25 05:14:01;;;;;;;230.15;35.88;;;1.90;99.90;;;;;;5013717;28;20077;-42
2022/03/25 05:16:28;;;;;;;395.27;43.90;;;1.80;99.90;;;;;;5014289;28;20132;-40
2022/03/25 05:18:54;;;;;;;395.63;40.55;;;1.80;99.90;;;;;;5014001;28;20052;-40
2022/03/25 05:21:21;;;;;;;223.13;38.65;;;1.80;99.90;;;;;;5013704;28;20057;-40
2022/03/25 05:23:48;;;;;;;381.33;41.70;;;1.80;99.90;;;;;;5014344;28;20052;-40
2022/03/25 05:26:15;;;;;;;440.17;43.03;;;1.70;99.90;;;;;;5013968;28;20565;-40
2022/03/25 05:28:42;;;;;;;249.57;38.88;;;1.70;99.90;;;;;;5012855;28;20152;-41
2022/03/25 05:31:10;;;;;;;52.22;32.67;;;1.70;99.90;;;;;;5014535;28;20405;-40
2022/03/25 05:33:36;;;;;;;56.83;32.30;;;1.70;99.90;;;;;;5014568;28;20065;-40
2022/03/25 05:36:04;;;;;;;102.63;34.35;;;1.70;99.90;;;;;;5013889;28;20440;-41
2022/03/25 05:38:31;;;;;;;49.25;31.42;;;1.80;99.90;;;;;;5014103;28;20129;-40
2022/03/25 05:40:57;;;;;;;41.45;28.00;;;1.80;99.90;;;;;;5014104;28;20087;-40
2022/03/25 05:43:24;;;;;;;55.38;31.15;;;1.80;99.90;;;;;;5012166;28;20058;-40
2022/03/25 05:45:51;;;;;;;50.13;31.80;;;1.80;99.90;;;;;;5011632;28;20041;-39
2022/03/25 05:48:19;;;;;;;47.30;32.50;;;1.90;99.90;;;;;;5012000;28;20401;-39
2022/03/25 05:50:45;;;;;;;48.08;34.30;;;1.90;99.90;;;;;;5013484;28;20077;-39
2022/03/25 05:53:12;;;;;;;46.45;32.08;;;1.80;99.90;;;;;;5014551;28;20115;-40
2022/03/25 05:55:39;;;;;;;46.92;33.63;;;1.90;99.90;;;;;;5012285;28;20049;-40
2022/03/25 05:58:06;;;;;;;45.28;33.13;;;1.90;99.90;;;;;;5008412;28;20054;-41
2022/03/25 06:00:34;;;;;;;47.28;33.25;;;1.90;99.90;;;;;;5012470;28;20057;-39
2022/03/25 06:03:01;;;;;;;49.33;33.85;;;1.90;99.90;;;;;;5013781;28;20112;-40
2022/03/25 06:05:29;;;;;;;53.30;36.88;;;2.00;99.90;;;;;;5013880;28;20382;-41
2022/03/25 06:07:55;;;;;;;46.55;32.90;;;2.00;99.90;;;;;;5012949;28;20045;-41
2022/03/25 06:10:23;;;;;;;50.53;34.75;;;2.10;99.90;;;;;;5029966;28;20038;-40
2022/03/25 06:12:49;;;;;;;48.50;34.28;;;2.10;99.90;;;;;;5014045;28;20062;-40
2022/03/25 06:15:16;;;;;;;47.33;31.13;;;2.10;99.90;;;;;;5012085;28;20393;-40
2022/03/25 06:17:44;;;;;;;54.13;37.60;;;2.10;99.90;;;;;;5006938;28;20064;-42
2022/03/25 06:20:12;;;;;;;45.25;31.90;;;2.20;99.90;;;;;;4994849;28;20137;-41
2022/03/25 06:22:40;;;;;;;51.85;34.78;;;2.20;99.90;;;;;;4993933;28;20118;-41
2022/03/25 06:25:08;;;;;;;61.17;40.65;;;2.30;99.90;;;;;;5000223;28;20052;-41
2022/03/25 06:27:35;;;;;;;55.00;35.33;;;2.30;99.90;;;;;;4995866;28;20119;-42
2022/03/25 06:30:01;;;;;;;52.85;34.95;;;2.30;99.90;;;;;;4997238;28;20061;-42
2022/03/25 06:32:28;;;;;;;60.78;38.70;;;2.30;99.90;;;;;;4999822;28;20470;-41
2022/03/25 06:34:55;;;;;;;50.95;34.65;;;2.40;99.90;;;;;;4997810;28;20041;-42
2022/03/25 06:37:21;;;;;;;59.30;39.55;;;2.40;99.90;;;;;;4994839;28;20042;-41
2022/03/25 06:39:49;;;;;;;57.97;38.40;;;2.40;99.90;;;;;;4995386;28;20561;-40
2022/03/25 06:42:16;;;;;;;61.00;39.95;;;2.50;99.90;;;;;;4996823;28;20060;-41
2022/03/25 06:44:43;;;;;;;64.18;41.70;;;2.50;99.90;;;;;;4994586;28;20051;-40
2022/03/25 06:47:09;;;;;;;68.15;45.10;;;2.60;99.90;;;;;;5011485;28;20057;-39
2022/03/25 06:49:37;;;;;;;64.75;43.20;;;2.60;99.90;;;;;;5000607;28;20046;-38
2022/03/25 06:52:04;;;;;;;66.53;43.70;;;2.70;99.90;;;;;;5003991;28;20042;-38
2022/03/25 06:54:31;;;;;;;72.93;45.42;;;2.80;99.90;;;;;;4991110;28;20133;-40
2022/03/25 06:57:01;;;;;;;67.75;44.42;;;2.80;99.90;;;;;;4995866;28;20081;-39
2022/03/25 06:59:28;;;;;;;75.00;47.40;;;3.00;99.90;;;;;;5005617;28;20049;-39
2022/03/25 07:01:55;;;;;;;79.47;48.53;;;3.00;99.90;;;;;;5009768;28;20549;-40
2022/03/25 07:04:22;;;;;;;84.63;50.78;;;3.20;99.90;;;;;;4994195;28;20046;-40
2022/03/25 07:06:49;;;;;;;90.28;51.35;;;3.30;99.90;;;;;;5003441;28;20042;-40
2022/03/25 07:09:17;;;;;;;89.28;53.08;;;3.40;99.90;;;;;;5009829;28;20050;-40
2022/03/25 07:11:44;;;;;;;84.38;51.53;;;3.60;99.90;;;;;;5010751;28;20059;-41
2022/03/25 07:14:12;;;;;;;97.43;56.17;;;3.70;99.90;;;;;;5009153;28;20054;-41
2022/03/25 07:16:42;;;;;;;97.20;55.75;;;3.90;99.90;;;;;;5009025;28;20050;-41
2022/03/25 07:19:09;;;;;;;97.32;56.03;;;4.00;99.90;;;;;;5010232;28;20064;-40
2022/03/25 07:21:35;;;;;;;91.53;52.65;;;4.20;99.90;;;;;;5011932;28;20127;-41
2022/03/25 07:24:02;;;;;;;88.35;53.80;;;4.30;99.90;;;;;;5011805;28;20075;-41
2022/03/25 07:26:29;;;;;;;95.38;54.60;;;4.50;99.90;;;;;;5011751;28;20462;-40
2022/03/25 07:28:56;;;;;;;103.00;55.72;;;4.70;99.90;;;;;;5011670;28;20468;-39
2022/03/25 07:31:28;;;;;;;95.18;54.20;;;4.80;99.90;;;;;;5009698;28;20046;-40
2022/03/25 07:33:54;;;;;;;101.88;57.10;;;5.00;99.90;;;;;;5006893;28;20385;-39
2022/03/25 07:36:21;;;;;;;100.88;57.05;;;5.20;99.90;;;;;;5011114;28;20385;-40
2022/03/25 07:38:48;;;;;;;97.97;55.70;;;5.30;99.90;;;;;;5010057;28;20060;-42
2022/03/25 07:41:14;;;;;;;96.10;52.47;;;5.50;99.90;;;;;;5012150;28;20056;-42
2022/03/25 07:43:41;;;;;;;94.03;54.38;;;5.70;99.90;;;;;;5011554;28;20045;-40
2022/03/25 07:46:08;;;;;;;90.57;52.30;;;5.90;99.90;;;;;;5011859;28;20073;-40
2022/03/25 07:48:36;;;;;;;94.43;53.58;;;6.10;99.90;;;;;;5010594;28;20056;-40
2022/03/25 07:51:03;;;;;;;87.78;52.30;;;6.30;99.90;;;;;;5011802;28;20482;-40
2022/03/25 07:53:31;;;;;;;91.45;51.42;;;6.40;99.90;;;;;;5010916;28;20046;-41
2022/03/25 07:55:58;;;;;;;88.03;51.72;;;6.60;99.90;;;;;;5011787;28;20049;-39
2022/03/25 07:58:25;;;;;;;84.95;50.85;;;6.80;99.90;;;;;;5010569;28;20059;-44
2022/03/25 08:00:52;;;;;;;81.00;48.42;;;7.00;99.90;;;;;;5011397;28;20045;-41
2022/03/25 08:03:20;;;;;;;75.35;47.00;;;7.20;99.90;;;;;;5010708;28;20496;-41
2022/03/25 08:05:52;;;;;;;84.93;48.50;;;7.30;99.90;;;;;;5010569;28;20057;-40
2022/03/25 08:08:19;;;;;;;;;;;7.50;99.90;;;;;;5009351;28;20045;-42
2022/03/25 08:10:47;;;;;;;79.03;43.83;;;7.70;99.90;;;;;;5010489;28;20018;-41
2022/03/25 08:13:13;;;;;;;77.00;45.65;;;7.90;99.90;;;;;;5003938;28;20046;-42
2022/03/25 08:15:40;;;;;;;78.30;43.60;;;8.10;99.90;;;;;;4998055;28;20145;-42
2022/03/25 08:18:07;;;;;;;78.72;42.75;;;8.20;99.90;;;;;;5007330;28;20077;-41
2022/03/25 08:20:35;;;;;;;68.90;41.58;;;8.40;99.90;;;;;;5007556;28;20042;-42
2022/03/25 08:23:04;;;;;;;64.15;40.33;;;8.60;99.90;;;;;;4999766;28;20138;-41
2022/03/25 08:28:23;;;;;;;69.80;40.22;;;8.90;99.90;;;;;;4986295;28;20497;-41
2022/03/25 08:30:50;;;;;;;66.78;41.03;;;9.10;99.90;;;;;;5011234;28;20037;-42
2022/03/25 08:33:17;;;;;;;65.70;40.17;;;9.30;99.90;;;;;;5010564;28;20368;-40
2022/03/25 08:35:44;;;;;;;62.50;37.28;;;9.40;99.60;;;;;;5011198;28;20041;-41
2022/03/25 08:38:13;;;;;;;60.83;38.40;;;9.60;99.30;;;;;;5010393;28;20052;-42
2022/03/25 08:40:40;;;;;;;58.47;35.08;;;9.80;98.80;;;;;;5011496;28;20041;-41
2022/03/25 08:43:06;;;;;;;59.92;35.60;;;9.90;98.10;;;;;;5010714;28;20050;-42
2022/03/25 08:45:33;;;;;;;56.30;33.55;;;10.00;97.40;;;;;;5011206;28;20397;-41
2022/03/25 08:48:00;;;;;;;57.42;35.72;;;10.20;97.30;;;;;;5010098;28;20056;-41
2022/03/25 08:50:27;;;;;;;57.50;35.80;;;10.40;96.60;;;;;;5010539;28;20056;-41
2022/03/25 08:52:53;;;;;;;60.47;36.75;;;10.50;96.00;;;;;;5010275;28;20393;-39
2022/03/25 08:55:22;;;;;;;61.25;35.92;;;10.70;96.10;;;;;;5011068;28;20054;-41
2022/03/25 08:57:48;;;;;;;63.58;35.85;;;10.90;96.10;;;;;;5009520;28;20064;-41
2022/03/25 09:00:17;;;;;;;60.72;35.55;;;11.10;95.50;;;;;;5006323;28;20269;-42
2022/03/25 09:02:44;;;;;;;61.63;36.03;;;11.30;94.60;;;;;;5009711;28;20057;-41
2022/03/25 09:05:11;;;;;;;56.95;33.42;;;11.50;94.20;;;;;;5009830;28;20041;-40
2022/03/25 09:07:38;;;;;;;59.08;34.63;;;11.60;93.20;;;;;;5012419;28;20041;-41
2022/03/25 09:10:05;;;;;;;57.60;34.75;;;11.80;93.00;;;;;;5013557;28;20041;-41
2022/03/25 09:12:33;;;;;;;57.83;34.75;;;11.90;92.10;;;;;;5013129;28;20045;-40
2022/03/25 09:15:00;;;;;;;61.85;35.50;;;12.10;91.50;;;;;;5012766;28;20038;-42
2022/03/25 09:17:26;;;;;;;59.78;35.35;;;12.20;91.10;;;;;;5013807;28;20049;-41
2022/03/25 09:19:53;;;;;;;53.92;32.33;;;12.40;91.00;;;;;;5028867;28;20112;-40
2022/03/25 09:22:20;;;;;;;60.75;33.55;;;12.60;90.50;;;;;;5012355;28;20557;-41
2022/03/25 09:24:47;;;;;;;56.22;32.85;;;12.80;89.70;;;;;;5013851;28;20048;-41
2022/03/25 09:27:13;;;;;;;53.92;32.75;;;12.90;88.40;;;;;;5013704;28;20042;-41
2022/03/25 09:29:41;;;;;;;51.75;32.45;;;13.10;86.90;;;;;;5013726;28;20124;-43
2022/03/25 09:32:08;;;;;;;52.72;31.92;;;13.10;85.70;;;;;;5013230;28;20052;-41
2022/03/25 09:37:21;;;;;;;53.42;32.58;;;13.20;85.50;;;;;;5005605;28;20085;-42
2022/03/25 09:39:48;;;;;;;56.80;34.03;;;13.30;84.80;;;;;;4993732;28;20101;-41
2022/03/25 09:42:14;;;;;;;52.78;31.75;;;13.30;84.50;;;;;;5010839;28;20046;-44
2022/03/25 09:44:43;;;;;;;53.30;32.70;;;13.40;83.20;;;;;;5014137;28;20045;-41
2022/03/25 09:47:10;;;;;;;54.28;31.63;;;13.50;83.10;;;;;;5013084;28;20045;-41
2022/03/25 09:49:37;;;;;;;50.15;31.58;;;13.60;82.50;;;;;;5014168;28;20057;-43
2022/03/25 09:52:05;;;;;;;55.20;32.25;;;13.70;82.20;;;;;;5014583;28;20053;-42
2022/03/25 09:54:32;;;;;;;58.63;32.25;;;13.80;81.30;;;;;;5014011;28;20054;-43
2022/03/25 09:56:58;;;;;;;55.85;33.50;;;13.80;81.80;;;;;;5013406;28;20048;-41
2022/03/25 09:59:25;;;;;;;52.30;32.28;;;14.00;82.10;;;;;;4995599;28;20125;-41
2022/03/25 10:01:53;;;;;;;50.10;31.25;;;14.20;80.10;;;;;;5008365;28;20053;-43
2022/03/25 10:04:36;;;;;;;50.50;30.45;;;14.30;78.90;;;;;;5002336;28;20049;-43
2022/03/25 10:07:03;;;;;;;49.00;29.13;;;14.50;74.80;;;;;;5002475;28;20377;-42
2022/03/25 10:09:30;;;;;;;58.95;28.55;;;14.50;76.00;;;;;;5000314;28;20046;-43
2022/03/25 10:11:57;;;;;;;47.58;27.60;;;14.60;75.00;;;;;;4994190;28;20057;-43
2022/03/25 10:14:27;;;;;;;52.50;27.90;;;14.70;73.20;;;;;;4993595;28;20042;-44
2022/03/25 10:16:55;;;;;;;46.53;27.88;;;14.80;73.00;;;;;;5012790;28;20045;-45
2022/03/25 10:19:23;;;;;;;47.47;27.85;;;15.00;71.60;;;;;;5012058;28;20049;-44
2022/03/25 10:21:51;;;;;;;44.05;28.30;;;15.00;70.30;;;;;;5013355;28;20413;-44
2022/03/25 10:24:18;;;;;;;45.45;27.70;;;15.10;70.20;;;;;;5012319;28;20045;-42
2022/03/25 10:26:45;;;;;;;48.72;28.23;;;15.20;69.70;;;;;;4996910;28;20146;-42
2022/03/25 10:29:21;;;;;;;47.30;29.15;;;15.30;69.80;;;;;;5009851;28;20057;-44
2022/03/25 10:32:05;;;;;;;49.25;28.88;;;15.60;68.90;;;;;;5003301;28;20065;-41
2022/03/25 10:34:32;;;;;;;50.15;28.52;;;15.80;65.90;;;;;;4997885;28;20056;-40
2022/03/25 10:37:02;;;;;;;48.17;27.70;;;15.80;66.70;;;;;;5012540;28;20121;-42
2022/03/25 10:39:29;;;;;;;47.47;27.63;;;15.80;66.00;;;;;;5012077;28;20342;-42
2022/03/25 10:41:58;;;;;;;51.58;29.40;;;15.90;65.70;;;;;;5011131;28;20037;-42
2022/03/25 10:44:33;;;;;;;47.80;25.92;;;15.90;64.50;;;;;;5011290;28;20053;-41
2022/03/25 10:47:00;;;;;;;50.67;27.75;;;15.90;63.60;;;;;;5009469;28;20044;-42
2022/03/25 10:49:28;;;;;;;50.08;28.48;;;16.00;65.30;;;;;;5013175;28;20128;-43
2022/03/25 10:51:56;;;;;;;44.28;27.27;;;16.20;65.80;;;;;;5012477;28;20052;-43
2022/03/25 10:54:23;;;;;;;47.13;27.25;;;16.40;63.90;;;;;;5011803;28;20426;-42
2022/03/25 10:56:51;;;;;;;45.22;26.60;;;16.40;63.80;;;;;;5010979;28;20049;-42
2022/03/25 10:59:22;;;;;;;46.30;27.15;;;16.60;63.30;;;;;;5012406;28;20120;-41
2022/03/25 11:01:50;;;;;;;47.55;27.08;;;16.70;64.10;;;;;;5010257;28;20442;-42
2022/03/25 11:04:17;;;;;;;45.42;25.25;;;16.80;63.80;;;;;;5001576;28;20050;-46
2022/03/25 11:06:45;;;;;;;46.97;25.98;;;16.90;62.60;;;;;;5012398;28;20100;-44
2022/03/25 11:09:11;;;;;;;46.95;26.55;;;17.10;62.20;;;;;;4997065;28;20072;-43
2022/03/25 11:11:38;;;;;;;43.13;26.08;;;17.30;61.20;;;;;;5005935;28;20056;-44
2022/03/25 11:14:05;;;;;;;40.10;24.25;;;17.30;60.30;;;;;;4997096;28;20097;-43
2022/03/25 11:16:32;;;;;;;44.65;24.90;;;17.40;59.70;;;;;;5002732;28;20053;-44
2022/03/25 11:18:59;;;;;;;44.97;24.75;;;17.40;59.90;;;;;;5010855;28;20050;-43
2022/03/25 11:21:26;;;;;;;39.50;24.92;;;17.40;59.30;;;;;;4995396;28;20088;-45
2022/03/25 11:23:55;;;;;;;45.63;25.80;;;17.50;59.20;;;;;;4991531;28;20050;-40
2022/03/25 11:26:24;;;;;;;37.78;24.17;;;17.70;58.70;;;;;;5011948;28;20140;-44
2022/03/25 11:28:52;;;;;;;41.15;24.42;;;17.80;58.70;;;;;;5011974;28;20048;-45
2022/03/25 11:31:18;;;;;;;45.45;25.75;;;17.90;58.10;;;;;;5012019;28;20056;-43
2022/03/25 11:34:04;;;;;;;47.92;25.77;;;17.80;57.50;;;;;;5009301;28;20132;-43
2022/03/25 11:36:31;;;;;;;45.47;25.35;;;17.80;55.10;;;;;;5007387;28;20125;-43
2022/03/25 11:39:22;;;;;;;42.60;25.40;;;17.80;56.50;;;;;;5004116;28;20148;-42
2022/03/25 11:41:49;;;;;;;46.07;25.37;;;17.90;56.50;;;;;;4998313;28;20045;-43
2022/03/25 11:44:20;;;;;;;43.42;24.63;;;18.00;57.00;;;;;;4999687;28;20080;-45
2022/03/25 11:47:15;;;;;;;47.08;26.10;;;18.10;56.10;;;;;;5011646;28;20052;-42
2022/03/25 11:49:43;;;;;;;49.72;26.38;;;18.10;54.20;;;;;;5012106;28;20049;-43
2022/03/25 11:52:32;;;;;;;46.05;25.70;;;18.10;55.30;;;;;;5012605;28;20121;-42
2022/03/25 11:55:00;;;;;;;47.58;26.20;;;18.20;54.40;;;;;;5011642;28;20056;-42
2022/03/25 11:57:27;;;;;;;42.33;25.83;;;18.40;55.70;;;;;;5011632;28;20054;-42
2022/03/25 11:59:55;;;;;;;47.63;26.10;;;18.60;54.50;;;;;;5011711;28;20053;-42
2022/03/25 12:02:26;;;;;;;47.17;25.75;;;18.80;55.00;;;;;;5011752;28;20084;-43
2022/03/25 12:04:53;;;;;;;47.55;26.02;;;18.90;54.20;;;;;;5011815;28;20454;-44
2022/03/25 12:07:20;;;;;;;44.05;25.55;;;19.00;54.30;;;;;;5011032;28;20046;-43
2022/03/25 12:09:47;;;;;;;44.25;27.40;;;19.00;53.50;;;;;;5011770;28;20077;-42
2022/03/25 12:12:15;;;;;;;47.03;25.20;;;19.00;52.70;;;;;;5012491;28;20046;-44
2022/03/25 12:15:07;;;;;;;42.60;25.17;;;19.00;52.60;;;;;;5011333;28;20056;-43
2022/03/25 12:17:34;;;;;;;48.65;25.55;;;19.00;52.60;;;;;;5011299;28;20073;-43
2022/03/25 12:20:02;;;;;;;40.25;24.27;;;18.90;53.80;;;;;;5011203;28;20045;-46
2022/03/25 12:22:34;;;;;;;45.80;23.17;;;18.90;52.80;;;;;;5010981;28;20092;-44
2022/03/25 12:25:10;;;;;;;43.58;24.02;;;18.90;53.20;;;;;;5003342;28;20042;-42
2022/03/25 12:27:39;;;;;;;43.88;24.00;;;18.90;52.20;;;;;;4993561;28;20054;-44
2022/03/25 12:30:06;;;;;;;40.22;22.98;;;18.90;52.00;;;;;;5002230;28;20525;-42
2022/03/25 12:32:35;;;;;;;46.33;24.02;;;18.80;52.00;;;;;;5006933;28;20042;-42
2022/03/25 12:35:03;;;;;;;37.83;21.98;;;18.80;51.60;;;;;;5009871;28;20045;-42
2022/03/25 12:37:34;;;;;;;36.15;23.27;;;18.80;51.50;;;;;;5007979;28;20129;-43